createdAt,value
2017-11-01T21:05:11.697Z,12.90
2017-11-01T21:07:39.204Z,12.80
2017-11-01T21:10:06.686Z,12.70
2017-11-01T21:12:35.005Z,12.50
2017-11-01T21:15:02.523Z,12.50
2017-11-01T21:17:30.769Z,12.40
2017-11-01T21:19:58.267Z,12.40
2017-11-01T21:22:26.504Z,12.20
2017-11-01T21:24:54.005Z,12.20
2017-11-01T21:27:22.259Z,12.20
2017-11-01T21:29:49.758Z,12.10
2017-11-01T21:32:17.251Z,12.10
2017-11-01T21:34:44.752Z,12.10
2017-11-01T21:37:13.019Z,12.00
2017-11-01T21:39:41.293Z,12.00
2017-11-01T21:42:09.568Z,12.00
2017-11-01T21:44:37.133Z,12.00
2017-11-01T21:47:04.618Z,12.00
2017-11-01T21:49:32.171Z,12.00
2017-11-01T21:52:00.412Z,12.00
2017-11-01T21:54:28.671Z,12.00
2017-11-01T21:56:56.151Z,11.90
2017-11-01T21:59:23.639Z,12.00
2017-11-01T22:01:51.871Z,11.90
2017-11-01T22:04:19.348Z,11.90
2017-11-01T22:06:46.839Z,11.90
2017-11-01T22:09:14.319Z,11.90
2017-11-01T22:11:41.809Z,12.00
2017-11-01T22:14:09.280Z,11.90
2017-11-01T22:16:36.769Z,12.00
2017-11-01T22:19:04.244Z,12.00
2017-11-01T22:21:31.715Z,12.00
2017-11-01T22:23:59.205Z,11.90
2017-11-01T22:26:26.688Z,11.90
2017-11-01T22:28:54.949Z,12.00
2017-11-01T22:31:22.423Z,11.90
2017-11-01T22:33:50.691Z,11.90
2017-11-01T22:36:18.945Z,11.90
2017-11-01T22:38:46.460Z,11.90
2017-11-01T22:41:13.987Z,11.90
2017-11-01T22:43:42.228Z,11.90
2017-11-01T22:46:09.712Z,11.90
2017-11-01T22:48:37.209Z,11.90
2017-11-01T22:51:04.714Z,11.90
2017-11-01T22:53:32.201Z,11.90
2017-11-01T22:56:00.445Z,11.90
2017-11-01T22:58:27.928Z,11.80
2017-11-01T23:00:56.175Z,11.90
2017-11-01T23:03:23.667Z,11.90
2017-11-01T23:05:51.913Z,11.90
2017-11-01T23:08:19.388Z,11.90
2017-11-01T23:10:46.898Z,12.00
2017-11-01T23:13:14.418Z,11.90
2017-11-01T23:15:42.680Z,12.00
2017-11-01T23:18:10.158Z,12.00
2017-11-01T23:20:38.399Z,12.00
2017-11-01T23:23:05.891Z,12.00
2017-11-01T23:25:34.128Z,11.90
2017-11-01T23:28:01.619Z,11.90
2017-11-01T23:30:29.863Z,11.80
2017-11-01T23:32:57.367Z,11.80
2017-11-01T23:35:25.603Z,11.80
2017-11-01T23:37:53.080Z,11.80
2017-11-01T23:40:20.578Z,11.80
2017-11-01T23:42:48.045Z,11.80
2017-11-01T23:45:15.538Z,11.80
2017-11-01T23:47:43.025Z,11.70
2017-11-01T23:50:11.288Z,11.70
2017-11-01T23:52:38.767Z,11.70
2017-11-01T23:55:07.004Z,11.70
2017-11-01T23:57:34.484Z,11.70
